createdAt,value
2019-02-21T00:01:00.058Z,10.91
2019-02-21T00:03:29.702Z,10.88
2019-02-21T00:05:59.165Z,10.85
2019-02-21T00:08:28.889Z,10.89
2019-02-21T00:10:58.769Z,10.88
2019-02-21T00:13:28.643Z,10.91
2019-02-21T00:15:58.328Z,10.90
2019-02-21T00:18:28.081Z,10.87
2019-02-21T00:20:57.510Z,10.90
2019-02-21T00:23:27.087Z,10.85
2019-02-21T00:25:56.804Z,10.82
2019-02-21T00:28:26.622Z,10.79
2019-02-21T00:30:56.361Z,10.72
2019-02-21T00:33:26.127Z,10.62
2019-02-21T00:35:55.849Z,10.59
2019-02-21T00:38:25.339Z,10.56
2019-02-21T00:40:54.789Z,10.54
2019-02-21T00:43:24.292Z,10.58
2019-02-21T00:45:53.926Z,10.50
2019-02-21T00:48:23.566Z,10.48
2019-02-21T00:50:53.274Z,10.49
2019-02-21T00:53:23.022Z,10.44
2019-02-21T00:55:52.685Z,10.46
2019-02-21T00:58:22.071Z,10.47
2019-02-21T01:00:51.865Z,10.53
2019-02-21T01:03:21.669Z,10.52
2019-02-21T01:05:51.503Z,10.47
2019-02-21T01:08:21.120Z,10.45
2019-02-21T01:10:50.855Z,10.41
2019-02-21T01:13:20.665Z,10.41
2019-02-21T01:15:50.387Z,10.47
2019-02-21T01:18:20.054Z,10.54
2019-02-21T01:20:49.795Z,10.49
2019-02-21T01:23:19.567Z,10.48
2019-02-21T01:25:49.168Z,10.50
2019-02-21T01:28:18.805Z,10.40
2019-02-21T01:30:56.718Z,10.38
2019-02-21T01:33:19.749Z,10.42
2019-02-21T01:35:49.559Z,10.40
2019-02-21T01:38:19.394Z,10.38
2019-02-21T01:40:49.130Z,10.38
2019-02-21T01:43:18.744Z,10.41
2019-02-21T01:45:48.510Z,10.44
2019-02-21T01:48:18.103Z,10.45
2019-02-21T01:50:47.935Z,10.36
2019-02-21T01:53:17.698Z,10.30
2019-02-21T01:55:47.427Z,10.31
2019-02-21T01:58:16.885Z,10.27
2019-02-21T02:00:46.660Z,10.05
2019-02-21T02:03:16.347Z,10.11
2019-02-21T02:05:46.028Z,10.04
2019-02-21T02:08:15.892Z,9.94
2019-02-21T02:10:45.726Z,9.77
2019-02-21T02:13:24.133Z,9.54
2019-02-21T02:15:46.550Z,9.34
2019-02-21T02:18:16.199Z,9.20
2019-02-21T02:20:45.950Z,9.22
2019-02-21T02:23:15.334Z,9.18
2019-02-21T02:25:45.123Z,9.19
2019-02-21T02:28:15.037Z,9.21
2019-02-21T02:30:44.877Z,9.23
2019-02-21T02:33:14.605Z,9.20
2019-02-21T02:35:44.056Z,9.19
2019-02-21T02:38:13.712Z,9.20
2019-02-21T02:40:43.504Z,9.18
2019-02-21T02:43:13.353Z,9.16
2019-02-21T02:45:43.140Z,9.20
2019-02-21T02:48:12.526Z,9.25
2019-02-21T02:50:42.068Z,9.33
2019-02-21T02:53:11.839Z,9.36
2019-02-21T02:55:41.470Z,9.49
2019-02-21T02:58:11.097Z,9.51
2019-02-21T03:00:40.956Z,9.53
2019-02-21T03:03:10.821Z,9.51
2019-02-21T03:05:40.399Z,9.57
2019-02-21T03:08:10.095Z,9.57
2019-02-21T03:10:39.944Z,9.55
2019-02-21T03:13:09.816Z,9.58
2019-02-21T03:15:39.450Z,9.62
2019-02-21T03:18:09.227Z,9.58
2019-02-21T03:20:38.665Z,9.49
2019-02-21T03:23:08.272Z,9.42
2019-02-21T03:25:37.980Z,9.41
2019-02-21T03:28:07.601Z,9.53
2019-02-21T03:30:37.018Z,9.60
2019-02-21T03:33:06.588Z,9.59
2019-02-21T03:35:36.088Z,9.54
2019-02-21T03:38:05.997Z,9.43
2019-02-21T03:40:35.419Z,9.47
2019-02-21T03:43:05.415Z,9.53
2019-02-21T03:45:35.073Z,9.56
2019-02-21T03:48:04.919Z,9.48
2019-02-21T03:50:34.338Z,9.49
2019-02-21T03:53:04.039Z,9.48
2019-02-21T03:55:33.953Z,9.46
2019-02-21T03:58:03.529Z,9.38
2019-02-21T04:00:32.958Z,9.35
2019-02-21T04:03:02.446Z,9.35
2019-02-21T04:05:32.247Z,9.29
2019-02-21T04:08:01.731Z,9.31
2019-02-21T04:10:31.509Z,9.23
2019-02-21T04:13:01.108Z,9.29
2019-02-21T04:15:30.843Z,9.29
2019-02-21T04:18:00.654Z,9.29
2019-02-21T04:20:30.341Z,9.25
2019-02-21T04:22:59.962Z,9.21
2019-02-21T04:25:29.781Z,9.18
2019-02-21T04:27:59.534Z,9.15
2019-02-21T04:30:29.491Z,9.12
2019-02-21T04:32:58.859Z,9.16
2019-02-21T04:35:28.574Z,9.13
2019-02-21T04:37:58.311Z,9.09
2019-02-21T04:40:28.110Z,9.02
2019-02-21T04:42:57.768Z,8.97
2019-02-21T04:45:27.456Z,8.94
2019-02-21T04:47:57.052Z,8.95
2019-02-21T04:50:26.538Z,9.03
2019-02-21T04:52:56.275Z,8.99
2019-02-21T04:55:25.853Z,9.00
2019-02-21T04:57:55.251Z,9.02
2019-02-21T05:00:24.991Z,9.08
2019-02-21T05:02:54.701Z,9.07
2019-02-21T05:05:24.140Z,8.94
2019-02-21T05:07:53.719Z,8.85
2019-02-21T05:10:23.344Z,8.76
2019-02-21T05:12:53.193Z,8.68
2019-02-21T05:15:22.943Z,8.55
2019-02-21T05:17:52.664Z,8.47
2019-02-21T05:20:22.345Z,8.45
2019-02-21T05:22:52.053Z,8.48
2019-02-21T05:25:21.841Z,8.50
2019-02-21T05:27:56.722Z,8.51
2019-02-21T05:30:27.777Z,8.55
2019-02-21T05:33:08.828Z,8.63
2019-02-21T05:35:57.465Z,8.71
2019-02-21T05:38:45.245Z,8.69
2019-02-21T05:41:32.607Z,8.77
2019-02-21T05:44:16.829Z,8.77
2019-02-21T05:46:56.694Z,8.74
2019-02-21T05:49:43.757Z,8.66
2019-02-21T05:52:29.573Z,8.61
2019-02-21T05:55:20.827Z,8.57
2019-02-21T05:57:55.530Z,8.56
2019-02-21T06:00:39.961Z,8.52
2019-02-21T06:03:27.293Z,8.53
2019-02-21T06:06:04.252Z,8.49
2019-02-21T06:08:55.957Z,8.54
2019-02-21T06:11:30.120Z,8.62
2019-02-21T06:14:19.378Z,8.70
2019-02-21T06:17:06.631Z,8.78
2019-02-21T06:19:51.072Z,8.71
2019-02-21T06:22:42.522Z,8.75
2019-02-21T06:25:30.139Z,8.87
2019-02-21T06:28:03.690Z,9.03
2019-02-21T06:30:40.276Z,9.11
2019-02-21T06:33:09.912Z,9.14
2019-02-21T06:35:39.744Z,9.04
2019-02-21T06:38:09.554Z,8.98
2019-02-21T06:40:40.021Z,9.09
2019-02-21T06:43:09.461Z,9.17
2019-02-21T06:45:39.319Z,9.25
2019-02-21T06:48:08.888Z,9.26
2019-02-21T06:50:38.659Z,9.31
2019-02-21T06:53:08.522Z,9.29
2019-02-21T06:55:38.213Z,9.43
2019-02-21T06:58:07.701Z,9.51
2019-02-21T07:00:37.545Z,9.71
2019-02-21T07:03:15.374Z,9.83
2019-02-21T07:05:38.493Z,10.01
2019-02-21T07:08:08.940Z,10.12
2019-02-21T07:10:38.788Z,10.37
2019-02-21T07:13:08.692Z,10.56
2019-02-21T07:15:38.337Z,10.92
2019-02-21T07:18:08.064Z,11.19
2019-02-21T07:20:39.727Z,11.36
2019-02-21T07:23:11.192Z,11.56
2019-02-21T07:25:52.433Z,12.05
2019-02-21T07:28:21.915Z,12.72
2019-02-21T07:30:52.122Z,13.54
2019-02-21T07:33:28.582Z,14.02
2019-02-21T07:35:53.182Z,14.26
2019-02-21T07:38:23.043Z,14.13
2019-02-21T07:40:52.689Z,13.80
2019-02-21T07:43:24.728Z,13.78
2019-02-21T07:45:53.239Z,13.80
2019-02-21T07:48:23.038Z,13.74
2019-02-21T07:50:52.463Z,13.64
2019-02-21T07:53:21.904Z,13.58
2019-02-21T07:55:51.671Z,13.46
2019-02-21T07:58:21.157Z,13.36
2019-02-21T08:00:54.019Z,13.30
2019-02-21T08:03:30.359Z,13.28
2019-02-21T08:05:54.543Z,13.23
2019-02-21T08:08:23.962Z,13.25
2019-02-21T08:10:53.762Z,13.36
2019-02-21T08:13:23.645Z,13.42
2019-02-21T08:15:53.288Z,13.36
2019-02-21T08:18:22.897Z,13.30
2019-02-21T08:20:52.397Z,13.36
2019-02-21T08:23:21.885Z,13.24
2019-02-21T08:25:51.620Z,13.03
2019-02-21T08:28:21.308Z,12.88
2019-02-21T08:30:50.837Z,12.62
2019-02-21T08:33:57.925Z,12.52
2019-02-21T08:36:20.140Z,12.63
2019-02-21T08:38:49.731Z,12.86
2019-02-21T08:41:19.570Z,13.10
2019-02-21T08:43:49.160Z,13.40
2019-02-21T08:46:18.933Z,13.77
2019-02-21T08:48:48.485Z,14.27
2019-02-21T08:51:18.530Z,14.62
2019-02-21T08:53:48.331Z,15.00
2019-02-21T08:56:18.184Z,15.35
2019-02-21T08:58:47.937Z,15.63
2019-02-21T09:01:17.634Z,15.72
2019-02-21T09:03:47.280Z,15.84
2019-02-21T09:06:17.009Z,15.66
2019-02-21T09:08:46.802Z,15.81
2019-02-21T09:11:19.414Z,16.42
2019-02-21T09:13:47.924Z,16.97
2019-02-21T09:16:17.999Z,17.13
2019-02-21T09:18:48.026Z,16.99
2019-02-21T09:21:17.405Z,17.05
2019-02-21T09:23:47.073Z,17.60
2019-02-21T09:26:16.939Z,17.32
2019-02-21T09:28:46.467Z,17.15
2019-02-21T09:31:15.963Z,18.00
2019-02-21T09:33:45.591Z,19.13
2019-02-21T09:36:15.088Z,20.09
2019-02-21T09:38:44.903Z,20.60
2019-02-21T09:41:14.545Z,20.86
2019-02-21T09:43:44.114Z,20.18
2019-02-21T09:46:13.895Z,20.17
2019-02-21T09:48:43.612Z,20.22
2019-02-21T09:51:13.243Z,20.19
2019-02-21T09:53:42.892Z,20.85
2019-02-21T09:56:12.634Z,21.86
2019-02-21T09:58:42.433Z,22.59
2019-02-21T10:01:11.990Z,23.58
2019-02-21T10:03:44.128Z,24.69
2019-02-21T10:06:13.054Z,25.22
2019-02-21T10:08:42.726Z,25.67
2019-02-21T10:11:12.632Z,26.37
2019-02-21T10:13:42.384Z,27.01
2019-02-21T10:16:12.082Z,28.01
2019-02-21T10:18:41.684Z,28.01
2019-02-21T10:21:11.466Z,27.99
2019-02-21T10:23:42.160Z,26.90
2019-02-21T10:26:11.621Z,27.55
2019-02-21T10:28:41.241Z,27.45
2019-02-21T10:31:10.715Z,27.78
2019-02-21T10:33:47.109Z,28.08
2019-02-21T10:36:11.482Z,28.26
2019-02-21T10:38:40.977Z,29.03
2019-02-21T10:41:10.767Z,29.67
2019-02-21T10:43:40.313Z,30.01
2019-02-21T10:46:09.867Z,30.68
2019-02-21T10:48:39.602Z,31.15
2019-02-21T10:51:09.234Z,31.66
2019-02-21T10:53:38.933Z,32.12
2019-02-21T10:56:08.599Z,32.71
2019-02-21T10:58:38.373Z,32.97
2019-02-21T11:01:08.136Z,32.43
2019-02-21T11:03:37.876Z,32.26
2019-02-21T11:06:07.705Z,29.34
2019-02-21T11:08:37.420Z,29.62
2019-02-21T11:11:07.372Z,30.08
2019-02-21T11:13:36.767Z,31.39
2019-02-21T11:16:06.586Z,31.85
2019-02-21T11:18:36.188Z,32.00
2019-02-21T11:21:05.833Z,32.75
2019-02-21T11:23:35.439Z,33.82
2019-02-21T11:26:05.165Z,34.65
2019-02-21T11:28:34.549Z,35.03
2019-02-21T11:31:04.430Z,35.16
2019-02-21T11:33:34.184Z,34.85
2019-02-21T11:36:03.987Z,33.39
2019-02-21T11:38:33.735Z,33.20
2019-02-21T11:41:03.720Z,33.69
2019-02-21T11:43:33.364Z,34.32
2019-02-21T11:46:02.752Z,35.28
2019-02-21T11:48:32.135Z,35.33
2019-02-21T11:51:01.911Z,35.97
2019-02-21T11:53:31.760Z,36.40
2019-02-21T11:56:01.150Z,36.39
2019-02-21T11:58:30.545Z,36.46
2019-02-21T12:01:00.043Z,36.61
2019-02-21T12:03:29.547Z,35.89
2019-02-21T12:05:59.313Z,34.39
2019-02-21T12:08:28.805Z,34.09
2019-02-21T12:10:58.667Z,33.18
2019-02-21T12:13:28.399Z,33.39
2019-02-21T12:15:59.119Z,32.39
2019-02-21T12:18:29.226Z,32.65
2019-02-21T12:20:58.951Z,32.04
2019-02-21T12:23:28.478Z,32.94
2019-02-21T12:25:58.184Z,33.79
2019-02-21T12:28:27.654Z,34.47
2019-02-21T12:30:57.279Z,34.63
2019-02-21T12:33:27.530Z,34.35
2019-02-21T12:35:59.441Z,34.38
2019-02-21T12:38:28.718Z,34.53
2019-02-21T12:40:58.368Z,34.63
2019-02-21T12:43:28.095Z,34.75
2019-02-21T12:46:01.096Z,34.76
2019-02-21T12:48:30.625Z,34.26
2019-02-21T12:51:00.499Z,33.88
2019-02-21T12:53:30.121Z,34.07
2019-02-21T12:55:59.534Z,34.28
2019-02-21T12:58:28.980Z,34.53
2019-02-21T13:00:58.902Z,33.82
2019-02-21T13:03:28.627Z,34.04
2019-02-21T13:05:58.320Z,34.32
2019-02-21T13:08:28.009Z,34.78
2019-02-21T13:10:57.913Z,34.57
2019-02-21T13:13:27.676Z,31.96
2019-02-21T13:15:57.353Z,30.31
2019-02-21T13:18:26.973Z,30.70
2019-02-21T13:20:56.467Z,31.06
2019-02-21T13:23:26.082Z,31.19
2019-02-21T13:25:55.725Z,30.87
2019-02-21T13:28:25.370Z,29.66
2019-02-21T13:30:55.211Z,27.83
2019-02-21T13:33:24.610Z,26.65
2019-02-21T13:35:54.350Z,25.65
2019-02-21T13:38:24.185Z,24.68
2019-02-21T13:40:53.587Z,24.06
2019-02-21T13:43:22.967Z,23.51
2019-02-21T13:45:53.561Z,22.92
2019-02-21T13:48:23.288Z,22.35
2019-02-21T13:50:52.970Z,21.77
2019-02-21T13:53:22.586Z,21.40
2019-02-21T13:55:52.196Z,20.93
2019-02-21T13:58:21.689Z,20.56
2019-02-21T14:00:51.307Z,20.33
2019-02-21T14:03:21.023Z,20.13
2019-02-21T14:05:50.412Z,19.90
2019-02-21T14:08:19.799Z,19.77
2019-02-21T14:10:49.537Z,19.60
2019-02-21T14:13:19.024Z,18.89
2019-02-21T14:15:48.708Z,18.41
2019-02-21T14:18:18.427Z,18.19
2019-02-21T14:20:48.313Z,18.12
2019-02-21T14:23:18.228Z,18.11
2019-02-21T14:25:47.756Z,18.01
2019-02-21T14:28:17.385Z,17.97
2019-02-21T14:30:46.874Z,17.73
2019-02-21T14:33:17.480Z,17.51
2019-02-21T14:35:47.023Z,17.36
2019-02-21T14:38:27.382Z,17.27
2019-02-21T14:40:48.298Z,17.18
2019-02-21T14:43:18.168Z,17.08
2019-02-21T14:45:47.846Z,17.02
2019-02-21T14:48:17.290Z,16.88
2019-02-21T14:50:47.197Z,16.83
2019-02-21T14:53:16.875Z,16.75
2019-02-21T14:55:46.426Z,16.62
2019-02-21T14:58:15.839Z,16.54
2019-02-21T15:00:45.618Z,16.55
2019-02-21T15:03:22.102Z,16.53
2019-02-21T15:05:46.696Z,16.34
2019-02-21T15:08:22.059Z,16.26
2019-02-21T15:10:52.742Z,16.16
2019-02-21T15:13:25.405Z,16.01
2019-02-21T15:15:54.123Z,15.94
2019-02-21T15:18:23.646Z,15.86
2019-02-21T15:20:53.573Z,15.71
2019-02-21T15:23:23.269Z,15.63
2019-02-21T15:25:53.040Z,15.48
2019-02-21T15:28:22.908Z,15.46
2019-02-21T15:30:52.511Z,15.35
2019-02-21T15:33:22.103Z,15.25
2019-02-21T15:35:51.631Z,15.04
2019-02-21T15:38:21.146Z,14.90
2019-02-21T15:40:50.652Z,14.69
2019-02-21T15:43:20.231Z,14.54
2019-02-21T15:45:49.737Z,14.33
2019-02-21T15:48:19.615Z,14.31
2019-02-21T15:50:49.250Z,14.22
2019-02-21T15:53:18.651Z,14.12
2019-02-21T15:55:48.146Z,13.90
2019-02-21T15:58:17.636Z,13.67
2019-02-21T16:00:47.263Z,13.46
2019-02-21T16:03:17.083Z,13.28
2019-02-21T16:05:46.707Z,13.19
2019-02-21T16:08:16.096Z,13.05
2019-02-21T16:10:45.972Z,12.98
2019-02-21T16:13:16.398Z,12.92
2019-02-21T16:15:46.227Z,12.84
2019-02-21T16:18:15.608Z,12.79
2019-02-21T16:20:45.430Z,12.68
2019-02-21T16:23:15.171Z,12.56
2019-02-21T16:25:44.761Z,12.49
2019-02-21T16:28:14.369Z,12.43
2019-02-21T16:30:44.140Z,12.39
2019-02-21T16:33:16.180Z,12.36
2019-02-21T16:35:45.751Z,12.28
2019-02-21T16:38:15.134Z,12.20
2019-02-21T16:40:44.883Z,12.13
2019-02-21T16:43:14.477Z,12.06
2019-02-21T16:45:47.215Z,11.98
2019-02-21T16:48:15.391Z,11.86
2019-02-21T16:50:44.784Z,11.81
2019-02-21T16:53:14.404Z,11.79
2019-02-21T16:55:43.950Z,11.77
2019-02-21T16:58:13.666Z,11.81
2019-02-21T17:00:52.694Z,11.86
2019-02-21T17:03:14.731Z,11.83
2019-02-21T17:05:44.342Z,11.81
2019-02-21T17:08:13.849Z,11.81
2019-02-21T17:10:43.516Z,11.81
2019-02-21T17:13:12.995Z,11.77
2019-02-21T17:15:42.575Z,11.71
2019-02-21T17:18:12.412Z,11.68
2019-02-21T17:20:41.853Z,11.77
2019-02-21T17:23:22.233Z,11.77
2019-02-21T17:25:42.876Z,11.69
2019-02-21T17:28:13.008Z,11.69
2019-02-21T17:30:42.891Z,11.68
2019-02-21T17:33:12.385Z,11.52
2019-02-21T17:35:41.768Z,11.54
2019-02-21T17:38:11.453Z,11.55
2019-02-21T17:40:41.272Z,11.51
2019-02-21T17:43:11.347Z,11.41
2019-02-21T17:45:40.854Z,11.43
2019-02-21T17:48:10.596Z,11.37
2019-02-21T17:50:41.321Z,11.35
2019-02-21T17:53:11.026Z,11.28
2019-02-21T17:55:40.440Z,11.24
2019-02-21T17:58:09.839Z,11.14
2019-02-21T18:00:40.015Z,11.03
2019-02-21T18:03:09.410Z,10.97
2019-02-21T18:05:39.183Z,10.95
2019-02-21T18:08:08.671Z,10.94
2019-02-21T18:10:38.277Z,10.92
2019-02-21T18:13:07.979Z,10.96
2019-02-21T18:15:37.476Z,10.95
2019-02-21T18:18:07.246Z,10.94
2019-02-21T18:20:36.652Z,10.99
2019-02-21T18:23:06.291Z,10.94
2019-02-21T18:25:39.365Z,10.96
2019-02-21T18:28:09.245Z,10.93
2019-02-21T18:30:39.666Z,10.92
2019-02-21T18:33:09.134Z,10.90
2019-02-21T18:35:38.963Z,10.95
2019-02-21T18:38:08.595Z,10.96
2019-02-21T18:40:37.991Z,10.90
2019-02-21T18:43:07.811Z,10.87
2019-02-21T18:45:37.612Z,10.85
2019-02-21T18:48:07.281Z,10.80
2019-02-21T18:50:38.426Z,10.81
2019-02-21T18:53:08.138Z,10.75
2019-02-21T18:55:37.539Z,10.79
2019-02-21T18:58:07.109Z,10.81
2019-02-21T19:00:36.892Z,10.76
2019-02-21T19:03:06.736Z,10.69
2019-02-21T19:05:36.550Z,10.72
2019-02-21T19:08:06.402Z,10.72
2019-02-21T19:10:36.229Z,10.62
2019-02-21T19:13:07.755Z,10.67
2019-02-21T19:15:37.480Z,10.64
2019-02-21T19:18:06.923Z,10.60
2019-02-21T19:20:36.618Z,10.49
2019-02-21T19:23:06.309Z,10.44
2019-02-21T19:25:36.067Z,10.36
2019-02-21T19:28:06.026Z,10.39
2019-02-21T19:30:45.496Z,10.31
2019-02-21T19:33:14.883Z,10.34
2019-02-21T19:35:44.985Z,10.30
2019-02-21T19:38:16.295Z,10.35
2019-02-21T19:40:45.796Z,10.28
2019-02-21T19:43:15.200Z,10.32
2019-02-21T19:45:45.110Z,10.35
2019-02-21T19:48:14.907Z,10.21
2019-02-21T19:50:44.565Z,10.05
2019-02-21T19:53:14.547Z,10.03
2019-02-21T19:55:44.573Z,10.00
2019-02-21T19:58:14.402Z,10.09
2019-02-21T20:00:44.167Z,10.06
2019-02-21T20:03:14.218Z,10.04
2019-02-21T20:05:43.993Z,10.00
2019-02-21T20:08:20.887Z,9.94
2019-02-21T20:10:44.798Z,9.93
2019-02-21T20:13:16.902Z,9.88
2019-02-21T20:15:46.763Z,9.89
2019-02-21T20:18:16.961Z,9.83
2019-02-21T20:20:46.793Z,9.84
2019-02-21T20:23:16.330Z,9.80
2019-02-21T20:25:45.865Z,9.79
2019-02-21T20:28:15.816Z,9.83
2019-02-21T20:30:45.429Z,9.88
2019-02-21T20:33:14.819Z,9.87
2019-02-21T20:35:44.746Z,9.85
2019-02-21T20:38:14.473Z,9.83
2019-02-21T20:40:43.863Z,9.86
2019-02-21T20:43:13.691Z,9.85
2019-02-21T20:45:52.469Z,9.84
2019-02-21T20:48:14.710Z,9.84
2019-02-21T20:50:44.649Z,9.81
2019-02-21T20:53:14.447Z,9.78
2019-02-21T20:55:44.204Z,9.74
2019-02-21T20:58:13.556Z,9.73
2019-02-21T21:00:43.280Z,9.72
2019-02-21T21:03:13.090Z,9.70
2019-02-21T21:05:42.767Z,9.64
2019-02-21T21:08:12.305Z,9.63
2019-02-21T21:10:41.790Z,9.61
2019-02-21T21:13:11.273Z,9.62
2019-02-21T21:15:40.772Z,9.61
2019-02-21T21:18:10.412Z,9.58
2019-02-21T21:20:39.895Z,9.51
2019-02-21T21:23:09.281Z,9.40
2019-02-21T21:25:38.955Z,9.40
2019-02-21T21:28:08.465Z,9.42
2019-02-21T21:30:38.035Z,9.39
2019-02-21T21:33:07.406Z,9.38
2019-02-21T21:35:37.156Z,9.34
2019-02-21T21:38:06.866Z,9.36
2019-02-21T21:40:36.562Z,9.31
2019-02-21T21:43:06.140Z,9.31
2019-02-21T21:45:35.630Z,9.30
2019-02-21T21:48:05.546Z,9.33
2019-02-21T21:50:35.150Z,9.32
2019-02-21T21:53:04.694Z,9.28
2019-02-21T21:55:34.481Z,9.27
2019-02-21T21:58:04.446Z,9.33
2019-02-21T22:00:33.925Z,9.34
2019-02-21T22:03:03.755Z,9.36
2019-02-21T22:05:33.428Z,9.39
2019-02-21T22:08:03.069Z,9.43
2019-02-21T22:10:32.819Z,9.44
2019-02-21T22:13:02.344Z,9.43
2019-02-21T22:15:31.978Z,9.48
2019-02-21T22:18:01.356Z,9.46
2019-02-21T22:20:31.106Z,9.41
2019-02-21T22:23:02.144Z,9.43
2019-02-21T22:25:31.805Z,9.41
2019-02-21T22:28:01.232Z,9.43
2019-02-21T22:30:31.036Z,9.38
2019-02-21T22:33:00.881Z,9.39
2019-02-21T22:35:30.326Z,9.41
2019-02-21T22:37:59.850Z,9.40
2019-02-21T22:40:29.329Z,9.39
2019-02-21T22:42:58.865Z,9.40
2019-02-21T22:45:28.646Z,9.37
2019-02-21T22:47:58.517Z,9.42
2019-02-21T22:50:28.201Z,9.43
2019-02-21T22:52:57.785Z,9.48
2019-02-21T22:55:27.453Z,9.47
2019-02-21T22:57:56.921Z,9.44
2019-02-21T23:01:06.403Z,9.43
2019-02-21T23:04:01.555Z,9.49
2019-02-21T23:06:42.310Z,9.47
2019-02-21T23:09:27.690Z,9.39
2019-02-21T23:11:54.664Z,9.46
2019-02-21T23:14:24.366Z,9.40
2019-02-21T23:16:54.097Z,9.35
2019-02-21T23:19:24.290Z,9.32
2019-02-21T23:21:53.899Z,9.26
2019-02-21T23:24:23.400Z,9.29
2019-02-21T23:26:52.879Z,9.33
2019-02-21T23:29:22.266Z,9.29
2019-02-21T23:31:52.042Z,9.23
2019-02-21T23:34:50.077Z,9.15
2019-02-21T23:37:19.462Z,9.22
2019-02-21T23:39:48.849Z,9.17
2019-02-21T23:42:18.622Z,9.18
2019-02-21T23:44:48.313Z,9.15
2019-02-21T23:47:17.717Z,9.06
2019-02-21T23:49:47.325Z,8.92
2019-02-21T23:52:17.065Z,8.82
2019-02-21T23:54:46.756Z,8.88
2019-02-21T23:57:16.444Z,8.90
2019-02-21T23:59:46.060Z,8.85
